sensor_id;sensor_type;location;lat;lon;timestamp;P1;durP1;ratioP1;P2;durP2;ratioP2
19374;SDS011;9823;50.936;4.046;2023-02-01T00:01:26;23.77;;;6.50;;
19374;SDS011;9823;50.936;4.046;2023-02-01T00:03:52;27.03;;;6.23;;
19374;SDS011;9823;50.936;4.046;2023-02-01T00:06:18;19.53;;;6.40;;
19374;SDS011;9823;50.936;4.046;2023-02-01T00:08:47;22.20;;;6.43;;
19374;SDS011;9823;50.936;4.046;2023-02-01T00:11:13;18.00;;;5.77;;
19374;SDS011;9823;50.936;4.046;2023-02-01T00:13:40;25.73;;;5.20;;
19374;SDS011;9823;50.936;4.046;2023-02-01T00:16:13;20.13;;;4.93;;
19374;SDS011;9823;50.936;4.046;2023-02-01T00:18:41;19.43;;;4.27;;
19374;SDS011;9823;50.936;4.046;2023-02-01T00:21:07;20.17;;;4.20;;
19374;SDS011;9823;50.936;4.046;2023-02-01T00:23:34;17.80;;;4.00;;
19374;SDS011;9823;50.936;4.046;2023-02-01T00:26:01;15.23;;;3.87;;
19374;SDS011;9823;50.936;4.046;2023-02-01T00:28:29;20.03;;;3.73;;
19374;SDS011;9823;50.936;4.046;2023-02-01T00:30:56;20.43;;;3.80;;
19374;SDS011;9823;50.936;4.046;2023-02-01T00:33:22;18.27;;;3.50;;
19374;SDS011;9823;50.936;4.046;2023-02-01T00:35:48;28.53;;;4.27;;
19374;SDS011;9823;50.936;4.046;2023-02-01T00:38:14;18.63;;;4.03;;
19374;SDS011;9823;50.936;4.046;2023-02-01T00:40:40;22.57;;;4.33;;
19374;SDS011;9823;50.936;4.046;2023-02-01T00:43:06;18.93;;;4.07;;
19374;SDS011;9823;50.936;4.046;2023-02-01T00:45:35;17.57;;;3.50;;
19374;SDS011;9823;50.936;4.046;2023-02-01T00:48:01;22.43;;;3.80;;
19374;SDS011;9823;50.936;4.046;2023-02-01T00:50:29;20.73;;;3.30;;
19374;SDS011;9823;50.936;4.046;2023-02-01T00:53:03;16.43;;;3.63;;
19374;SDS011;9823;50.936;4.046;2023-02-01T00:55:31;21.47;;;3.93;;
19374;SDS011;9823;50.936;4.046;2023-02-01T00:58:00;18.80;;;3.73;;
19374;SDS011;9823;50.936;4.046;2023-02-01T01:00:33;20.37;;;3.47;;
19374;SDS011;9823;50.936;4.046;2023-02-01T01:03:05;20.87;;;3.70;;
19374;SDS011;9823;50.936;4.046;2023-02-01T01:05:48;20.93;;;3.87;;
19374;SDS011;9823;50.936;4.046;2023-02-01T01:08:15;16.40;;;3.77;;
19374;SDS011;9823;50.936;4.046;2023-02-01T01:10:42;18.50;;;3.63;;
19374;SDS011;9823;50.936;4.046;2023-02-01T01:13:08;19.73;;;4.00;;
19374;SDS011;9823;50.936;4.046;2023-02-01T01:15:40;18.23;;;3.83;;
19374;SDS011;9823;50.936;4.046;2023-02-01T01:18:06;14.00;;;4.20;;
19374;SDS011;9823;50.936;4.046;2023-02-01T01:20:36;19.57;;;3.70;;
19374;SDS011;9823;50.936;4.046;2023-02-01T01:23:02;20.20;;;3.93;;
19374;SDS011;9823;50.936;4.046;2023-02-01T01:25:29;20.17;;;4.10;;
19374;SDS011;9823;50.936;4.046;2023-02-01T01:27:55;18.87;;;3.40;;
19374;SDS011;9823;50.936;4.046;2023-02-01T01:30:23;15.33;;;3.47;;
19374;SDS011;9823;50.936;4.046;2023-02-01T01:32:49;20.20;;;3.87;;
19374;SDS011;9823;50.936;4.046;2023-02-01T01:35:17;20.73;;;3.93;;
19374;SDS011;9823;50.936;4.046;2023-02-01T01:37:43;18.73;;;3.67;;
19374;SDS011;9823;50.936;4.046;2023-02-01T01:40:11;17.43;;;3.73;;
19374;SDS011;9823;50.936;4.046;2023-02-01T01:42:38;17.53;;;3.73;;
19374;SDS011;9823;50.936;4.046;2023-02-01T01:47:35;17.37;;;3.50;;
19374;SDS011;9823;50.936;4.046;2023-02-01T01:50:03;23.20;;;3.77;;
19374;SDS011;9823;50.936;4.046;2023-02-01T01:52:33;16.63;;;3.53;;
19374;SDS011;9823;50.936;4.046;2023-02-01T01:55:00;18.07;;;3.87;;
19374;SDS011;9823;50.936;4.046;2023-02-01T01:57:27;16.90;;;3.80;;
19374;SDS011;9823;50.936;4.046;2023-02-01T01:59:56;27.07;;;3.90;;
19374;SDS011;9823;50.936;4.046;2023-02-01T02:02:27;15.80;;;3.80;;
19374;SDS011;9823;50.936;4.046;2023-02-01T02:04:55;21.67;;;4.80;;
19374;SDS011;9823;50.936;4.046;2023-02-01T02:07:26;14.17;;;3.17;;
19374;SDS011;9823;50.936;4.046;2023-02-01T02:09:54;24.27;;;3.83;;
19374;SDS011;9823;50.936;4.046;2023-02-01T02:12:20;18.87;;;3.97;;
19374;SDS011;9823;50.936;4.046;2023-02-01T02:14:46;24.33;;;4.00;;
19374;SDS011;9823;50.936;4.046;2023-02-01T02:17:28;18.30;;;3.40;;
19374;SDS011;9823;50.936;4.046;2023-02-01T02:35:47;17.67;;;4.30;;
19374;SDS011;9823;50.936;4.046;2023-02-01T02:44:32;24.37;;;4.03;;
19374;SDS011;9823;50.936;4.046;2023-02-01T02:47:21;19.03;;;3.50;;
19374;SDS011;9823;50.936;4.046;2023-02-01T02:52:53;16.37;;;3.37;;
19374;SDS011;9823;50.936;4.046;2023-02-01T02:55:40;14.47;;;3.47;;
19374;SDS011;9823;50.936;4.046;2023-02-01T02:58:09;20.90;;;4.10;;
19374;SDS011;9823;50.936;4.046;2023-02-01T03:00:55;19.80;;;3.77;;
19374;SDS011;9823;50.936;4.046;2023-02-01T03:03:40;21.87;;;3.50;;
19374;SDS011;9823;50.936;4.046;2023-02-01T03:06:25;18.17;;;3.80;;
19374;SDS011;9823;50.936;4.046;2023-02-01T03:08:53;20.40;;;3.70;;
19374;SDS011;9823;50.936;4.046;2023-02-01T03:11:21;25.33;;;4.43;;
19374;SDS011;9823;50.936;4.046;2023-02-01T03:14:09;15.63;;;4.07;;
19374;SDS011;9823;50.936;4.046;2023-02-01T03:16:47;22.43;;;4.30;;
19374;SDS011;9823;50.936;4.046;2023-02-01T03:21:53;25.67;;;4.20;;
19374;SDS011;9823;50.936;4.046;2023-02-01T03:26:48;13.17;;;3.47;;
19374;SDS011;9823;50.936;4.046;2023-02-01T03:29:17;14.80;;;3.13;;
19374;SDS011;9823;50.936;4.046;2023-02-01T03:31:43;15.17;;;3.37;;
19374;SDS011;9823;50.936;4.046;2023-02-01T03:34:12;17.83;;;3.60;;
19374;SDS011;9823;50.936;4.046;2023-02-01T03:37:00;18.63;;;3.40;;
19374;SDS011;9823;50.936;4.046;2023-02-01T03:41:55;25.40;;;3.73;;
19374;SDS011;9823;50.936;4.046;2023-02-01T03:47:23;21.57;;;4.37;;
19374;SDS011;9823;50.936;4.046;2023-02-01T03:49:55;19.10;;;3.13;;
19374;SDS011;9823;50.936;4.046;2023-02-01T03:52:28;21.93;;;3.67;;
19374;SDS011;9823;50.936;4.046;2023-02-01T03:54:57;15.23;;;3.57;;
19374;SDS011;9823;50.936;4.046;2023-02-01T03:57:29;13.97;;;3.23;;
19374;SDS011;9823;50.936;4.046;2023-02-01T04:00:04;21.93;;;3.47;;
19374;SDS011;9823;50.936;4.046;2023-02-01T04:02:30;21.67;;;4.10;;
19374;SDS011;9823;50.936;4.046;2023-02-01T04:04:56;21.70;;;3.33;;
19374;SDS011;9823;50.936;4.046;2023-02-01T04:07:24;23.97;;;3.97;;
19374;SDS011;9823;50.936;4.046;2023-02-01T04:09:53;21.50;;;3.53;;
19374;SDS011;9823;50.936;4.046;2023-02-01T04:12:19;25.47;;;3.73;;
19374;SDS011;9823;50.936;4.046;2023-02-01T04:14:45;22.47;;;3.67;;
19374;SDS011;9823;50.936;4.046;2023-02-01T04:17:11;15.87;;;3.47;;
19374;SDS011;9823;50.936;4.046;2023-02-01T04:19:37;22.40;;;3.77;;
19374;SDS011;9823;50.936;4.046;2023-02-01T04:22:03;23.20;;;3.50;;
19374;SDS011;9823;50.936;4.046;2023-02-01T04:24:29;25.53;;;3.50;;
19374;SDS011;9823;50.936;4.046;2023-02-01T04:27:03;16.00;;;3.33;;
19374;SDS011;9823;50.936;4.046;2023-02-01T04:29:29;17.53;;;3.20;;
19374;SDS011;9823;50.936;4.046;2023-02-01T04:31:55;24.27;;;3.73;;
19374;SDS011;9823;50.936;4.046;2023-02-01T04:34:21;17.80;;;4.57;;
19374;SDS011;9823;50.936;4.046;2023-02-01T04:36:49;22.43;;;3.63;;
19374;SDS011;9823;50.936;4.046;2023-02-01T04:39:17;17.63;;;3.17;;
19374;SDS011;9823;50.936;4.046;2023-02-01T04:41:43;21.47;;;3.57;;
19374;SDS011;9823;50.936;4.046;2023-02-01T04:44:16;17.53;;;3.50;;
19374;SDS011;9823;50.936;4.046;2023-02-01T04:46:42;20.07;;;3.47;;
19374;SDS011;9823;50.936;4.046;2023-02-01T04:49:11;22.80;;;3.83;;
19374;SDS011;9823;50.936;4.046;2023-02-01T04:51:37;22.03;;;3.63;;
19374;SDS011;9823;50.936;4.046;2023-02-01T04:54:04;22.23;;;3.67;;
19374;SDS011;9823;50.936;4.046;2023-02-01T04:56:32;25.87;;;3.10;;
19374;SDS011;9823;50.936;4.046;2023-02-01T04:58:59;18.33;;;3.30;;
19374;SDS011;9823;50.936;4.046;2023-02-01T05:01:27;18.07;;;3.53;;
19374;SDS011;9823;50.936;4.046;2023-02-01T05:03:53;22.37;;;3.67;;
19374;SDS011;9823;50.936;4.046;2023-02-01T05:06:20;33.33;;;7.57;;
19374;SDS011;9823;50.936;4.046;2023-02-01T05:08:46;25.17;;;3.47;;
19374;SDS011;9823;50.936;4.046;2023-02-01T05:11:14;21.10;;;3.53;;
19374;SDS011;9823;50.936;4.046;2023-02-01T05:13:59;20.10;;;3.40;;
19374;SDS011;9823;50.936;4.046;2023-02-01T05:16:25;24.40;;;3.37;;
19374;SDS011;9823;50.936;4.046;2023-02-01T05:18:52;15.93;;;3.30;;
19374;SDS011;9823;50.936;4.046;2023-02-01T05:21:18;24.93;;;4.03;;
19374;SDS011;9823;50.936;4.046;2023-02-01T05:23:47;19.03;;;3.00;;
19374;SDS011;9823;50.936;4.046;2023-02-01T05:26:31;20.53;;;3.40;;
19374;SDS011;9823;50.936;4.046;2023-02-01T05:29:00;15.10;;;3.27;;
19374;SDS011;9823;50.936;4.046;2023-02-01T05:31:28;22.10;;;3.60;;
19374;SDS011;9823;50.936;4.046;2023-02-01T05:33:59;28.17;;;4.07;;
19374;SDS011;9823;50.936;4.046;2023-02-01T05:36:27;21.07;;;3.40;;
19374;SDS011;9823;50.936;4.046;2023-02-01T05:38:53;23.20;;;3.40;;
19374;SDS011;9823;50.936;4.046;2023-02-01T05:41:19;16.67;;;3.30;;
19374;SDS011;9823;50.936;4.046;2023-02-01T05:43:45;21.07;;;3.33;;
19374;SDS011;9823;50.936;4.046;2023-02-01T05:46:16;23.60;;;3.90;;
19374;SDS011;9823;50.936;4.046;2023-02-01T05:48:42;14.23;;;3.07;;
19374;SDS011;9823;50.936;4.046;2023-02-01T05:51:08;25.20;;;4.20;;
19374;SDS011;9823;50.936;4.046;2023-02-01T05:53:35;18.60;;;3.87;;
19374;SDS011;9823;50.936;4.046;2023-02-01T05:56:05;16.97;;;3.17;;
19374;SDS011;9823;50.936;4.046;2023-02-01T05:58:34;19.10;;;4.93;;
19374;SDS011;9823;50.936;4.046;2023-02-01T06:01:03;27.00;;;3.80;;
19374;SDS011;9823;50.936;4.046;2023-02-01T06:03:29;20.60;;;3.50;;
19374;SDS011;9823;50.936;4.046;2023-02-01T06:05:55;19.67;;;3.03;;
19374;SDS011;9823;50.936;4.046;2023-02-01T06:08:21;30.30;;;4.40;;
19374;SDS011;9823;50.936;4.046;2023-02-01T06:10:49;19.87;;;3.60;;
19374;SDS011;9823;50.936;4.046;2023-02-01T06:13:18;21.07;;;3.07;;
19374;SDS011;9823;50.936;4.046;2023-02-01T06:15:46;25.70;;;3.70;;
19374;SDS011;9823;50.936;4.046;2023-02-01T06:18:12;19.23;;;3.67;;
19374;SDS011;9823;50.936;4.046;2023-02-01T06:20:40;17.57;;;3.53;;
19374;SDS011;9823;50.936;4.046;2023-02-01T06:23:06;18.33;;;3.43;;
19374;SDS011;9823;50.936;4.046;2023-02-01T06:25:32;21.93;;;3.43;;
19374;SDS011;9823;50.936;4.046;2023-02-01T06:28:02;25.23;;;4.03;;
19374;SDS011;9823;50.936;4.046;2023-02-01T06:30:31;22.53;;;3.03;;
19374;SDS011;9823;50.936;4.046;2023-02-01T06:32:57;28.37;;;3.57;;
19374;SDS011;9823;50.936;4.046;2023-02-01T06:35:23;20.20;;;3.30;;
19374;SDS011;9823;50.936;4.046;2023-02-01T06:37:49;25.40;;;3.50;;
19374;SDS011;9823;50.936;4.046;2023-02-01T06:40:21;20.33;;;3.20;;
19374;SDS011;9823;50.936;4.046;2023-02-01T06:42:49;15.90;;;3.20;;
19374;SDS011;9823;50.936;4.046;2023-02-01T06:45:17;23.23;;;3.40;;
19374;SDS011;9823;50.936;4.046;2023-02-01T06:47:43;18.53;;;3.37;;
19374;SDS011;9823;50.936;4.046;2023-02-01T06:50:10;20.97;;;3.83;;
19374;SDS011;9823;50.936;4.046;2023-02-01T06:52:38;18.17;;;3.57;;
19374;SDS011;9823;50.936;4.046;2023-02-01T06:55:04;17.73;;;3.10;;
19374;SDS011;9823;50.936;4.046;2023-02-01T06:57:32;24.40;;;3.67;;
19374;SDS011;9823;50.936;4.046;2023-02-01T07:00:01;19.30;;;3.60;;
19374;SDS011;9823;50.936;4.046;2023-02-01T07:02:30;21.20;;;3.37;;
19374;SDS011;9823;50.936;4.046;2023-02-01T07:04:56;22.40;;;3.73;;
19374;SDS011;9823;50.936;4.046;2023-02-01T07:07:24;22.30;;;3.83;;
19374;SDS011;9823;50.936;4.046;2023-02-01T07:09:50;19.73;;;3.63;;
19374;SDS011;9823;50.936;4.046;2023-02-01T07:12:21;23.23;;;4.00;;
19374;SDS011;9823;50.936;4.046;2023-02-01T07:14:47;23.17;;;4.40;;
19374;SDS011;9823;50.936;4.046;2023-02-01T07:17:13;25.80;;;4.17;;
19374;SDS011;9823;50.936;4.046;2023-02-01T07:19:42;18.73;;;3.30;;
19374;SDS011;9823;50.936;4.046;2023-02-01T07:22:10;24.30;;;3.83;;
19374;SDS011;9823;50.936;4.046;2023-02-01T07:24:36;20.23;;;3.60;;
19374;SDS011;9823;50.936;4.046;2023-02-01T07:27:02;22.30;;;3.70;;
19374;SDS011;9823;50.936;4.046;2023-02-01T07:29:29;23.83;;;5.20;;
19374;SDS011;9823;50.936;4.046;2023-02-01T07:31:57;19.03;;;3.60;;
19374;SDS011;9823;50.936;4.046;2023-02-01T07:34:23;16.60;;;3.83;;
19374;SDS011;9823;50.936;4.046;2023-02-01T07:36:49;30.27;;;4.37;;
19374;SDS011;9823;50.936;4.046;2023-02-01T07:39:15;20.70;;;3.97;;
19374;SDS011;9823;50.936;4.046;2023-02-01T07:41:41;20.93;;;3.67;;
19374;SDS011;9823;50.936;4.046;2023-02-01T07:44:07;25.77;;;4.30;;
19374;SDS011;9823;50.936;4.046;2023-02-01T07:46:35;21.83;;;4.37;;
19374;SDS011;9823;50.936;4.046;2023-02-01T07:49:03;20.90;;;3.60;;
19374;SDS011;9823;50.936;4.046;2023-02-01T07:51:29;30.53;;;4.13;;
19374;SDS011;9823;50.936;4.046;2023-02-01T07:53:58;25.07;;;4.40;;
19374;SDS011;9823;50.936;4.046;2023-02-01T07:56:24;21.47;;;3.73;;
19374;SDS011;9823;50.936;4.046;2023-02-01T07:58:50;18.50;;;3.60;;
19374;SDS011;9823;50.936;4.046;2023-02-01T08:01:18;17.83;;;3.27;;
19374;SDS011;9823;50.936;4.046;2023-02-01T08:03:56;21.00;;;4.43;;
19374;SDS011;9823;50.936;4.046;2023-02-01T08:06:24;20.53;;;3.67;;
19374;SDS011;9823;50.936;4.046;2023-02-01T08:08:51;23.17;;;4.43;;
19374;SDS011;9823;50.936;4.046;2023-02-01T08:11:17;16.60;;;3.33;;
19374;SDS011;9823;50.936;4.046;2023-02-01T08:13:48;23.20;;;4.07;;
19374;SDS011;9823;50.936;4.046;2023-02-01T08:16:17;28.37;;;3.90;;
19374;SDS011;9823;50.936;4.046;2023-02-01T08:18:43;23.30;;;4.43;;
19374;SDS011;9823;50.936;4.046;2023-02-01T08:21:11;25.40;;;4.87;;
19374;SDS011;9823;50.936;4.046;2023-02-01T08:23:40;24.00;;;3.90;;
19374;SDS011;9823;50.936;4.046;2023-02-01T08:28:38;22.03;;;3.97;;
19374;SDS011;9823;50.936;4.046;2023-02-01T08:31:08;19.30;;;3.20;;
19374;SDS011;9823;50.936;4.046;2023-02-01T08:33:40;24.07;;;3.53;;
19374;SDS011;9823;50.936;4.046;2023-02-01T08:36:06;14.73;;;3.50;;
19374;SDS011;9823;50.936;4.046;2023-02-01T08:38:35;21.57;;;3.53;;
19374;SDS011;9823;50.936;4.046;2023-02-01T08:41:05;16.80;;;3.53;;
19374;SDS011;9823;50.936;4.046;2023-02-01T08:43:32;19.80;;;4.00;;
19374;SDS011;9823;50.936;4.046;2023-02-01T08:46:00;23.43;;;3.60;;
19374;SDS011;9823;50.936;4.046;2023-02-01T08:48:26;20.80;;;3.70;;
19374;SDS011;9823;50.936;4.046;2023-02-01T08:50:55;19.53;;;3.50;;
19374;SDS011;9823;50.936;4.046;2023-02-01T08:53:21;19.03;;;3.70;;
19374;SDS011;9823;50.936;4.046;2023-02-01T08:55:47;19.27;;;3.53;;
19374;SDS011;9823;50.936;4.046;2023-02-01T08:58:14;19.60;;;4.03;;
19374;SDS011;9823;50.936;4.046;2023-02-01T09:00:42;16.50;;;3.27;;
19374;SDS011;9823;50.936;4.046;2023-02-01T09:03:10;21.97;;;3.37;;
19374;SDS011;9823;50.936;4.046;2023-02-01T09:05:36;16.30;;;3.50;;
19374;SDS011;9823;50.936;4.046;2023-02-01T09:08:08;18.37;;;3.30;;
19374;SDS011;9823;50.936;4.046;2023-02-01T09:10:34;16.80;;;3.23;;
19374;SDS011;9823;50.936;4.046;2023-02-01T09:13:00;15.00;;;4.30;;
19374;SDS011;9823;50.936;4.046;2023-02-01T09:15:29;21.37;;;4.23;;
19374;SDS011;9823;50.936;4.046;2023-02-01T09:17:55;18.67;;;4.37;;
19374;SDS011;9823;50.936;4.046;2023-02-01T09:20:21;17.73;;;3.47;;
19374;SDS011;9823;50.936;4.046;2023-02-01T09:22:51;21.63;;;4.23;;
19374;SDS011;9823;50.936;4.046;2023-02-01T09:25:18;15.83;;;3.13;;
19374;SDS011;9823;50.936;4.046;2023-02-01T09:27:44;23.07;;;3.40;;
19374;SDS011;9823;50.936;4.046;2023-02-01T09:30:10;23.17;;;4.00;;
19374;SDS011;9823;50.936;4.046;2023-02-01T09:32:36;31.00;;;4.30;;
19374;SDS011;9823;50.936;4.046;2023-02-01T09:35:05;28.30;;;4.33;;
19374;SDS011;9823;50.936;4.046;2023-02-01T09:37:33;22.20;;;3.40;;
19374;SDS011;9823;50.936;4.046;2023-02-01T09:39:59;21.97;;;3.33;;
19374;SDS011;9823;50.936;4.046;2023-02-01T09:45:16;19.87;;;3.30;;
19374;SDS011;9823;50.936;4.046;2023-02-01T09:47:46;23.33;;;3.70;;
19374;SDS011;9823;50.936;4.046;2023-02-01T09:50:15;15.33;;;3.43;;
19374;SDS011;9823;50.936;4.046;2023-02-01T09:52:44;15.60;;;3.20;;
19374;SDS011;9823;50.936;4.046;2023-02-01T09:55:22;23.80;;;3.67;;
19374;SDS011;9823;50.936;4.046;2023-02-01T09:58:05;18.00;;;3.40;;
19374;SDS011;9823;50.936;4.046;2023-02-01T10:00:36;20.87;;;3.03;;
19374;SDS011;9823;50.936;4.046;2023-02-01T10:03:04;15.17;;;2.70;;
19374;SDS011;9823;50.936;4.046;2023-02-01T10:10:47;20.43;;;3.40;;
19374;SDS011;9823;50.936;4.046;2023-02-01T10:13:23;20.17;;;3.20;;
19374;SDS011;9823;50.936;4.046;2023-02-01T10:16:13;23.47;;;3.20;;
19374;SDS011;9823;50.936;4.046;2023-02-01T10:18:45;28.27;;;5.00;;
19374;SDS011;9823;50.936;4.046;2023-02-01T10:26:59;22.10;;;3.87;;
19374;SDS011;9823;50.936;4.046;2023-02-01T10:29:29;20.53;;;3.70;;
19374;SDS011;9823;50.936;4.046;2023-02-01T10:31:56;14.67;;;2.97;;
19374;SDS011;9823;50.936;4.046;2023-02-01T10:37:01;18.07;;;3.27;;
19374;SDS011;9823;50.936;4.046;2023-02-01T10:39:33;17.27;;;2.87;;
19374;SDS011;9823;50.936;4.046;2023-02-01T10:42:00;28.60;;;3.77;;
19374;SDS011;9823;50.936;4.046;2023-02-01T10:44:26;20.17;;;2.87;;
19374;SDS011;9823;50.936;4.046;2023-02-01T10:46:56;19.23;;;3.70;;
19374;SDS011;9823;50.936;4.046;2023-02-01T10:49:38;16.07;;;3.17;;
19374;SDS011;9823;50.936;4.046;2023-02-01T10:52:13;22.60;;;3.10;;
19374;SDS011;9823;50.936;4.046;2023-02-01T10:54:39;17.40;;;3.17;;
19374;SDS011;9823;50.936;4.046;2023-02-01T10:57:10;25.60;;;3.53;;
19374;SDS011;9823;50.936;4.046;2023-02-01T10:59:39;15.57;;;3.37;;
19374;SDS011;9823;50.936;4.046;2023-02-01T11:02:15;21.13;;;2.87;;
19374;SDS011;9823;50.936;4.046;2023-02-01T11:04:41;16.63;;;2.87;;
19374;SDS011;9823;50.936;4.046;2023-02-01T11:07:17;18.53;;;3.50;;
19374;SDS011;9823;50.936;4.046;2023-02-01T11:09:53;16.53;;;2.10;;
19374;SDS011;9823;50.936;4.046;2023-02-01T11:12:33;19.17;;;3.07;;
19374;SDS011;9823;50.936;4.046;2023-02-01T11:15:19;19.93;;;3.30;;
19374;SDS011;9823;50.936;4.046;2023-02-01T11:17:47;12.50;;;2.37;;
19374;SDS011;9823;50.936;4.046;2023-02-01T11:20:17;15.83;;;2.43;;
19374;SDS011;9823;50.936;4.046;2023-02-01T11:22:53;12.90;;;2.73;;
19374;SDS011;9823;50.936;4.046;2023-02-01T11:25:20;14.57;;;2.60;;
19374;SDS011;9823;50.936;4.046;2023-02-01T11:27:48;22.67;;;2.97;;
19374;SDS011;9823;50.936;4.046;2023-02-01T11:30:18;14.07;;;2.83;;
19374;SDS011;9823;50.936;4.046;2023-02-01T11:32:48;26.03;;;2.77;;
19374;SDS011;9823;50.936;4.046;2023-02-01T11:35:15;15.37;;;2.43;;
19374;SDS011;9823;50.936;4.046;2023-02-01T11:37:48;14.90;;;2.67;;
19374;SDS011;9823;50.936;4.046;2023-02-01T11:40:23;20.27;;;3.00;;
19374;SDS011;9823;50.936;4.046;2023-02-01T11:42:57;13.43;;;2.33;;
19374;SDS011;9823;50.936;4.046;2023-02-01T11:47:52;13.50;;;2.10;;
19374;SDS011;9823;50.936;4.046;2023-02-01T11:50:25;10.60;;;2.03;;
19374;SDS011;9823;50.936;4.046;2023-02-01T12:03:16;20.03;;;2.63;;
19374;SDS011;9823;50.936;4.046;2023-02-01T12:13:54;13.80;;;1.90;;
19374;SDS011;9823;50.936;4.046;2023-02-01T12:39:36;12.43;;;2.03;;
19374;SDS011;9823;50.936;4.046;2023-02-01T12:42:09;12.47;;;2.00;;
19374;SDS011;9823;50.936;4.046;2023-02-01T12:47:11;11.20;;;2.20;;
19374;SDS011;9823;50.936;4.046;2023-02-01T12:49:46;8.00;;;1.83;;
19374;SDS011;9823;50.936;4.046;2023-02-01T12:52:21;19.03;;;2.50;;
19374;SDS011;9823;50.936;4.046;2023-02-01T12:55:00;21.27;;;2.57;;
19374;SDS011;9823;50.936;4.046;2023-02-01T12:57:31;8.30;;;1.80;;
19374;SDS011;9823;50.936;4.046;2023-02-01T13:00:12;12.27;;;1.83;;
19374;SDS011;9823;50.936;4.046;2023-02-01T13:05:27;16.97;;;1.97;;
19374;SDS011;9823;50.936;4.046;2023-02-01T13:08:00;11.40;;;1.90;;
19374;SDS011;9823;50.936;4.046;2023-02-01T13:10:32;25.00;;;2.67;;
19374;SDS011;9823;50.936;4.046;2023-02-01T13:15:31;16.13;;;1.97;;
19374;SDS011;9823;50.936;4.046;2023-02-01T13:18:00;8.37;;;1.77;;
19374;SDS011;9823;50.936;4.046;2023-02-01T13:20:31;9.10;;;2.17;;
19374;SDS011;9823;50.936;4.046;2023-02-01T13:23:33;13.90;;;2.23;;
19374;SDS011;9823;50.936;4.046;2023-02-01T13:25:51;8.83;;;2.20;;
19374;SDS011;9823;50.936;4.046;2023-02-01T13:28:19;12.57;;;2.20;;
19374;SDS011;9823;50.936;4.046;2023-02-01T13:33:37;11.63;;;1.90;;
19374;SDS011;9823;50.936;4.046;2023-02-01T13:41:12;14.60;;;2.30;;
19374;SDS011;9823;50.936;4.046;2023-02-01T13:43:40;12.43;;;1.97;;
19374;SDS011;9823;50.936;4.046;2023-02-01T13:46:10;11.23;;;1.97;;
19374;SDS011;9823;50.936;4.046;2023-02-01T13:48:47;12.90;;;1.90;;
19374;SDS011;9823;50.936;4.046;2023-02-01T13:51:14;20.90;;;2.60;;
19374;SDS011;9823;50.936;4.046;2023-02-01T13:53:45;14.23;;;2.30;;
19374;SDS011;9823;50.936;4.046;2023-02-01T13:56:20;13.27;;;1.93;;
19374;SDS011;9823;50.936;4.046;2023-02-01T13:58:49;9.60;;;2.27;;
19374;SDS011;9823;50.936;4.046;2023-02-01T14:03:46;16.77;;;2.77;;
19374;SDS011;9823;50.936;4.046;2023-02-01T14:16:39;13.50;;;2.37;;
19374;SDS011;9823;50.936;4.046;2023-02-01T14:19:07;13.40;;;2.50;;
19374;SDS011;9823;50.936;4.046;2023-02-01T14:21:46;11.13;;;2.10;;
19374;SDS011;9823;50.936;4.046;2023-02-01T14:24:20;12.70;;;1.87;;
19374;SDS011;9823;50.936;4.046;2023-02-01T14:26:52;10.27;;;1.80;;
19374;SDS011;9823;50.936;4.046;2023-02-01T14:29:25;11.70;;;2.27;;
19374;SDS011;9823;50.936;4.046;2023-02-01T14:32:03;17.27;;;2.70;;
19374;SDS011;9823;50.936;4.046;2023-02-01T14:39:52;12.90;;;1.77;;
19374;SDS011;9823;50.936;4.046;2023-02-01T14:47:48;14.73;;;2.13;;
19374;SDS011;9823;50.936;4.046;2023-02-01T14:52:58;14.20;;;2.30;;
19374;SDS011;9823;50.936;4.046;2023-02-01T14:55:30;14.23;;;2.40;;
19374;SDS011;9823;50.936;4.046;2023-02-01T14:58:11;25.73;;;3.10;;
19374;SDS011;9823;50.936;4.046;2023-02-01T15:00:50;12.63;;;2.63;;
19374;SDS011;9823;50.936;4.046;2023-02-01T15:05:58;23.17;;;3.83;;
19374;SDS011;9823;50.936;4.046;2023-02-01T15:08:30;24.90;;;2.70;;
19374;SDS011;9823;50.936;4.046;2023-02-01T15:10:57;13.87;;;2.67;;
19374;SDS011;9823;50.936;4.046;2023-02-01T15:13:25;20.97;;;2.67;;
19374;SDS011;9823;50.936;4.046;2023-02-01T15:16:00;19.50;;;2.67;;
19374;SDS011;9823;50.936;4.046;2023-02-01T15:18:26;21.90;;;2.23;;
19374;SDS011;9823;50.936;4.046;2023-02-01T15:20:59;18.20;;;3.10;;
19374;SDS011;9823;50.936;4.046;2023-02-01T15:23:30;19.43;;;3.50;;
19374;SDS011;9823;50.936;4.046;2023-02-01T15:25:58;21.87;;;2.73;;
19374;SDS011;9823;50.936;4.046;2023-02-01T15:28:27;22.70;;;3.03;;
19374;SDS011;9823;50.936;4.046;2023-02-01T15:30:54;19.00;;;3.67;;
19374;SDS011;9823;50.936;4.046;2023-02-01T15:33:20;14.23;;;2.40;;
19374;SDS011;9823;50.936;4.046;2023-02-01T15:35:50;21.27;;;2.63;;
19374;SDS011;9823;50.936;4.046;2023-02-01T15:38:21;13.20;;;3.37;;
19374;SDS011;9823;50.936;4.046;2023-02-01T15:41:03;24.60;;;3.17;;
19374;SDS011;9823;50.936;4.046;2023-02-01T15:43:31;16.90;;;3.10;;
19374;SDS011;9823;50.936;4.046;2023-02-01T15:45:58;20.33;;;3.00;;
19374;SDS011;9823;50.936;4.046;2023-02-01T15:48:25;29.27;;;3.67;;
19374;SDS011;9823;50.936;4.046;2023-02-01T15:50:52;15.57;;;2.70;;
19374;SDS011;9823;50.936;4.046;2023-02-01T15:53:21;17.17;;;3.30;;
19374;SDS011;9823;50.936;4.046;2023-02-01T15:55:51;18.70;;;2.93;;
19374;SDS011;9823;50.936;4.046;2023-02-01T15:58:21;16.23;;;2.93;;
19374;SDS011;9823;50.936;4.046;2023-02-01T16:00:52;13.50;;;2.73;;
19374;SDS011;9823;50.936;4.046;2023-02-01T16:05:58;19.67;;;2.77;;
19374;SDS011;9823;50.936;4.046;2023-02-01T16:08:25;23.43;;;2.90;;
19374;SDS011;9823;50.936;4.046;2023-02-01T16:10:59;23.63;;;3.53;;
19374;SDS011;9823;50.936;4.046;2023-02-01T16:13:26;15.63;;;3.63;;
19374;SDS011;9823;50.936;4.046;2023-02-01T16:15:55;20.90;;;3.33;;
19374;SDS011;9823;50.936;4.046;2023-02-01T16:18:24;22.07;;;3.30;;
19374;SDS011;9823;50.936;4.046;2023-02-01T16:20:57;18.67;;;2.97;;
19374;SDS011;9823;50.936;4.046;2023-02-01T16:23:33;15.70;;;2.73;;
19374;SDS011;9823;50.936;4.046;2023-02-01T16:25:59;21.20;;;2.83;;
19374;SDS011;9823;50.936;4.046;2023-02-01T16:28:27;21.57;;;2.77;;
19374;SDS011;9823;50.936;4.046;2023-02-01T16:30:56;15.40;;;2.77;;
19374;SDS011;9823;50.936;4.046;2023-02-01T16:33:24;15.50;;;3.23;;
19374;SDS011;9823;50.936;4.046;2023-02-01T16:35:51;21.37;;;3.13;;
19374;SDS011;9823;50.936;4.046;2023-02-01T16:38:20;21.77;;;3.90;;
19374;SDS011;9823;50.936;4.046;2023-02-01T16:40:48;13.27;;;2.87;;
19374;SDS011;9823;50.936;4.046;2023-02-01T16:43:21;15.00;;;2.70;;
19374;SDS011;9823;50.936;4.046;2023-02-01T16:45:51;19.10;;;3.13;;
19374;SDS011;9823;50.936;4.046;2023-02-01T16:48:51;17.20;;;2.73;;
19374;SDS011;9823;50.936;4.046;2023-02-01T16:51:13;18.40;;;3.60;;
19374;SDS011;9823;50.936;4.046;2023-02-01T16:53:41;18.83;;;3.67;;
19374;SDS011;9823;50.936;4.046;2023-02-01T16:56:14;23.47;;;3.13;;
19374;SDS011;9823;50.936;4.046;2023-02-01T16:58:43;23.87;;;3.87;;
19374;SDS011;9823;50.936;4.046;2023-02-01T17:01:13;19.97;;;3.07;;
19374;SDS011;9823;50.936;4.046;2023-02-01T17:03:39;19.03;;;3.80;;
19374;SDS011;9823;50.936;4.046;2023-02-01T17:06:05;19.73;;;3.77;;
19374;SDS011;9823;50.936;4.046;2023-02-01T17:08:33;16.23;;;3.07;;
19374;SDS011;9823;50.936;4.046;2023-02-01T17:11:03;18.00;;;3.80;;
19374;SDS011;9823;50.936;4.046;2023-02-01T17:13:29;18.03;;;3.43;;
19374;SDS011;9823;50.936;4.046;2023-02-01T17:16:00;21.07;;;3.63;;
19374;SDS011;9823;50.936;4.046;2023-02-01T17:18:28;16.30;;;3.20;;
19374;SDS011;9823;50.936;4.046;2023-02-01T17:20:56;16.93;;;3.77;;
19374;SDS011;9823;50.936;4.046;2023-02-01T17:23:25;23.43;;;3.83;;
19374;SDS011;9823;50.936;4.046;2023-02-01T17:25:52;18.10;;;3.57;;
19374;SDS011;9823;50.936;4.046;2023-02-01T17:28:20;15.80;;;3.50;;
19374;SDS011;9823;50.936;4.046;2023-02-01T17:30:49;22.43;;;4.03;;